sensor_id;sensor_type;location;lat;lon;timestamp;pressure;altitude;pressure_sealevel;temperature;humidity
75627;BME280;67372;49.404;11.034;2023-02-04T00:00:35;99069.31;;;6.11;70.88
75627;BME280;67372;49.404;11.034;2023-02-04T00:03:01;99093.81;;;6.21;70.65
75627;BME280;67372;49.404;11.034;2023-02-04T00:05:28;99073.78;;;6.19;70.61
75627;BME280;67372;49.404;11.034;2023-02-04T00:07:54;99078.25;;;6.26;70.97
75627;BME280;67372;49.404;11.034;2023-02-04T00:10:20;99079.09;;;6.19;70.99
75627;BME280;67372;49.404;11.034;2023-02-04T00:12:47;99082.41;;;6.21;70.46
75627;BME280;67372;49.404;11.034;2023-02-04T00:15:13;99072.63;;;6.21;69.93
75627;BME280;67372;49.404;11.034;2023-02-04T00:17:39;99090.00;;;6.24;70.16
75627;BME280;67372;49.404;11.034;2023-02-04T00:20:06;99075.44;;;6.20;69.95
75627;BME280;67372;49.404;11.034;2023-02-04T00:22:32;99079.56;;;6.22;70.49
75627;BME280;67372;49.404;11.034;2023-02-04T00:24:59;99071.31;;;6.17;70.04
75627;BME280;67372;49.404;11.034;2023-02-04T00:27:25;99074.13;;;6.15;70.24
75627;BME280;67372;49.404;11.034;2023-02-04T00:29:51;99081.56;;;6.12;70.70
75627;BME280;67372;49.404;11.034;2023-02-04T00:32:18;99075.28;;;6.05;71.08
75627;BME280;67372;49.404;11.034;2023-02-04T00:34:44;99087.69;;;6.04;70.61
75627;BME280;67372;49.404;11.034;2023-02-04T00:37:10;99098.63;;;6.01;71.84
75627;BME280;67372;49.404;11.034;2023-02-04T00:39:37;99097.63;;;6.02;71.45
75627;BME280;67372;49.404;11.034;2023-02-04T00:42:03;99090.34;;;6.04;71.45
75627;BME280;67372;49.404;11.034;2023-02-04T00:44:29;99091.00;;;6.06;71.51
75627;BME280;67372;49.404;11.034;2023-02-04T00:46:56;99095.16;;;6.17;71.12
75627;BME280;67372;49.404;11.034;2023-02-04T00:49:22;99096.28;;;6.14;71.35
75627;BME280;67372;49.404;11.034;2023-02-04T00:51:49;99093.97;;;6.11;71.40
75627;BME280;67372;49.404;11.034;2023-02-04T00:54:15;99098.44;;;6.03;71.14
75627;BME280;67372;49.404;11.034;2023-02-04T00:56:42;99092.16;;;5.96;71.67
75627;BME280;67372;49.404;11.034;2023-02-04T00:59:09;99102.91;;;5.94;72.03
75627;BME280;67372;49.404;11.034;2023-02-04T01:01:35;99114.00;;;5.98;71.52
75627;BME280;67372;49.404;11.034;2023-02-04T01:04:02;99105.25;;;5.97;71.89
75627;BME280;67372;49.404;11.034;2023-02-04T01:06:28;99100.25;;;6.02;71.24
75627;BME280;67372;49.404;11.034;2023-02-04T01:08:55;99110.38;;;5.99;70.70
75627;BME280;67372;49.404;11.034;2023-02-04T01:11:21;99120.78;;;5.92;71.95
75627;BME280;67372;49.404;11.034;2023-02-04T01:13:48;99120.63;;;5.94;71.83
75627;BME280;67372;49.404;11.034;2023-02-04T01:16:14;99129.41;;;5.94;71.32
75627;BME280;67372;49.404;11.034;2023-02-04T01:18:40;99132.72;;;5.96;71.10
75627;BME280;67372;49.404;11.034;2023-02-04T01:21:07;99135.16;;;5.90;71.81
75627;BME280;67372;49.404;11.034;2023-02-04T01:23:33;99139.94;;;5.86;71.39
75627;BME280;67372;49.404;11.034;2023-02-04T01:25:59;99137.13;;;5.88;70.86
75627;BME280;67372;49.404;11.034;2023-02-04T01:28:26;99134.31;;;5.89;69.95
75627;BME280;67372;49.404;11.034;2023-02-04T01:30:52;99138.50;;;5.92;69.85
75627;BME280;67372;49.404;11.034;2023-02-04T01:33:19;99149.34;;;5.89;70.47
75627;BME280;67372;49.404;11.034;2023-02-04T01:35:45;99147.38;;;5.82;69.71
75627;BME280;67372;49.404;11.034;2023-02-04T01:38:12;99137.94;;;5.80;69.42
75627;BME280;67372;49.404;11.034;2023-02-04T01:40:38;99144.22;;;5.79;67.79
75627;BME280;67372;49.404;11.034;2023-02-04T01:43:05;99154.16;;;5.77;67.72
75627;BME280;67372;49.404;11.034;2023-02-04T01:45:32;99155.97;;;5.76;66.44
75627;BME280;67372;49.404;11.034;2023-02-04T01:47:59;99149.19;;;5.74;65.85
75627;BME280;67372;49.404;11.034;2023-02-04T01:50:25;99160.75;;;5.73;66.08
75627;BME280;67372;49.404;11.034;2023-02-04T01:52:51;99158.78;;;5.75;66.44
75627;BME280;67372;49.404;11.034;2023-02-04T01:55:20;99154.31;;;5.83;65.28
75627;BME280;67372;49.404;11.034;2023-02-04T01:57:48;99179.44;;;5.71;66.53
75627;BME280;67372;49.404;11.034;2023-02-04T02:00:18;99181.13;;;5.72;65.72
75627;BME280;67372;49.404;11.034;2023-02-04T02:02:49;99188.56;;;5.69;66.36
75627;BME280;67372;49.404;11.034;2023-02-04T02:05:18;99185.91;;;5.77;66.27
75627;BME280;67372;49.404;11.034;2023-02-04T02:07:47;99179.97;;;5.75;66.46
75627;BME280;67372;49.404;11.034;2023-02-04T02:10:15;99188.25;;;5.80;66.08
75627;BME280;67372;49.404;11.034;2023-02-04T02:12:43;99189.41;;;5.77;66.59
75627;BME280;67372;49.404;11.034;2023-02-04T02:15:12;99195.19;;;5.73;67.34
75627;BME280;67372;49.404;11.034;2023-02-04T02:17:38;99190.22;;;5.70;67.51
75627;BME280;67372;49.404;11.034;2023-02-04T02:20:08;99184.09;;;5.69;68.01
75627;BME280;67372;49.404;11.034;2023-02-04T02:25:11;99187.72;;;5.68;69.74
75627;BME280;67372;49.404;11.034;2023-02-04T02:27:38;99197.16;;;5.71;70.36
75627;BME280;67372;49.404;11.034;2023-02-04T02:30:06;99189.50;;;5.68;69.83
75627;BME280;67372;49.404;11.034;2023-02-04T02:32:35;99204.56;;;5.67;70.84
75627;BME280;67372;49.404;11.034;2023-02-04T02:35:02;99206.09;;;5.78;69.19
75627;BME280;67372;49.404;11.034;2023-02-04T02:37:29;99196.63;;;5.67;69.65
75627;BME280;67372;49.404;11.034;2023-02-04T02:39:55;99211.31;;;5.62;69.44
75627;BME280;67372;49.404;11.034;2023-02-04T02:42:22;99205.22;;;5.61;68.88
75627;BME280;67372;49.404;11.034;2023-02-04T02:44:49;99208.31;;;5.48;68.83
75627;BME280;67372;49.404;11.034;2023-02-04T02:47:19;99199.72;;;5.54;68.18
75627;BME280;67372;49.404;11.034;2023-02-04T02:49:51;99198.56;;;5.49;67.71
75627;BME280;67372;49.404;11.034;2023-02-04T02:52:18;99204.63;;;5.41;67.93
75627;BME280;67372;49.404;11.034;2023-02-04T02:54:45;99220.00;;;5.38;66.10
75627;BME280;67372;49.404;11.034;2023-02-04T02:57:20;99232.91;;;5.41;66.71
75627;BME280;67372;49.404;11.034;2023-02-04T02:59:47;99220.00;;;5.38;65.93
75627;BME280;67372;49.404;11.034;2023-02-04T03:02:19;99228.91;;;5.37;65.73
75627;BME280;67372;49.404;11.034;2023-02-04T03:04:52;99239.00;;;5.41;65.66
75627;BME280;67372;49.404;11.034;2023-02-04T03:07:20;99236.53;;;5.40;64.95
75627;BME280;67372;49.404;11.034;2023-02-04T03:09:47;99241.47;;;5.35;65.81
75627;BME280;67372;49.404;11.034;2023-02-04T03:12:14;99245.94;;;5.34;65.49
75627;BME280;67372;49.404;11.034;2023-02-04T03:14:40;99256.84;;;5.31;64.47
75627;BME280;67372;49.404;11.034;2023-02-04T03:17:08;99265.56;;;5.23;64.98
75627;BME280;67372;49.404;11.034;2023-02-04T03:19:36;99269.34;;;5.21;64.88
75627;BME280;67372;49.404;11.034;2023-02-04T03:22:03;99279.69;;;5.14;65.75
75627;BME280;67372;49.404;11.034;2023-02-04T03:24:30;99279.69;;;5.14;65.59
75627;BME280;67372;49.404;11.034;2023-02-04T03:26:57;99279.84;;;5.13;66.40
75627;BME280;67372;49.404;11.034;2023-02-04T03:29:23;99283.31;;;5.13;66.61
75627;BME280;67372;49.404;11.034;2023-02-04T03:31:49;99287.13;;;5.11;66.91
75627;BME280;67372;49.404;11.034;2023-02-04T03:34:16;99286.47;;;5.17;66.72
75627;BME280;67372;49.404;11.034;2023-02-04T03:36:42;99292.59;;;5.17;67.63
75627;BME280;67372;49.404;11.034;2023-02-04T03:39:08;99289.97;;;5.17;68.73
75627;BME280;67372;49.404;11.034;2023-02-04T03:41:35;99298.38;;;5.13;68.77
75627;BME280;67372;49.404;11.034;2023-02-04T03:44:01;99311.06;;;5.09;69.78
75627;BME280;67372;49.404;11.034;2023-02-04T03:46:27;99321.84;;;5.16;68.97
75627;BME280;67372;49.404;11.034;2023-02-04T03:48:54;99314.00;;;5.24;68.88
75627;BME280;67372;49.404;11.034;2023-02-04T03:51:20;99315.97;;;5.22;69.72
75627;BME280;67372;49.404;11.034;2023-02-04T03:53:47;99321.53;;;5.19;69.55
75627;BME280;67372;49.404;11.034;2023-02-04T03:56:13;99322.91;;;5.23;68.99
75627;BME280;67372;49.404;11.034;2023-02-04T03:58:39;99324.56;;;5.24;69.34
75627;BME280;67372;49.404;11.034;2023-02-04T04:01:06;99317.09;;;5.19;69.54
75627;BME280;67372;49.404;11.034;2023-02-04T04:03:32;99316.03;;;5.12;70.36
75627;BME280;67372;49.404;11.034;2023-02-04T04:05:58;99323.00;;;5.13;70.33
75627;BME280;67372;49.404;11.034;2023-02-04T04:08:25;99328.28;;;5.13;70.36
75627;BME280;67372;49.404;11.034;2023-02-04T04:10:51;99329.34;;;5.20;70.08
75627;BME280;67372;49.404;11.034;2023-02-04T04:13:17;99330.63;;;5.16;71.15
75627;BME280;67372;49.404;11.034;2023-02-04T04:15:44;99324.50;;;5.16;70.30
75627;BME280;67372;49.404;11.034;2023-02-04T04:18:10;99325.84;;;5.20;71.10
75627;BME280;67372;49.404;11.034;2023-02-04T04:20:37;99332.59;;;5.14;70.96
75627;BME280;67372;49.404;11.034;2023-02-04T04:23:03;99330.03;;;5.05;70.89
75627;BME280;67372;49.404;11.034;2023-02-04T04:25:29;99336.31;;;5.04;71.51
75627;BME280;67372;49.404;11.034;2023-02-04T04:27:55;99325.38;;;4.99;71.68
75627;BME280;67372;49.404;11.034;2023-02-04T04:30:22;99334.06;;;4.91;71.38
75627;BME280;67372;49.404;11.034;2023-02-04T04:32:48;99344.25;;;4.86;71.52
75627;BME280;67372;49.404;11.034;2023-02-04T04:35:14;99357.97;;;4.72;70.86
75627;BME280;67372;49.404;11.034;2023-02-04T04:37:41;99363.34;;;4.62;72.22
75627;BME280;67372;49.404;11.034;2023-02-04T04:40:12;99363.34;;;4.62;71.78
75627;BME280;67372;49.404;11.034;2023-02-04T04:42:38;99380.19;;;4.61;71.28
75627;BME280;67372;49.404;11.034;2023-02-04T04:45:10;99381.16;;;4.60;71.87
75627;BME280;67372;49.404;11.034;2023-02-04T04:47:36;99394.91;;;4.63;71.29
75627;BME280;67372;49.404;11.034;2023-02-04T04:50:03;99397.25;;;4.67;71.92
75627;BME280;67372;49.404;11.034;2023-02-04T04:52:29;99399.75;;;4.68;71.65
75627;BME280;67372;49.404;11.034;2023-02-04T04:54:56;99411.00;;;4.70;71.55
75627;BME280;67372;49.404;11.034;2023-02-04T04:57:22;99397.50;;;4.73;71.48
75627;BME280;67372;49.404;11.034;2023-02-04T04:59:48;99398.19;;;4.75;72.13
75627;BME280;67372;49.404;11.034;2023-02-04T05:02:15;99413.44;;;4.81;71.83
75627;BME280;67372;49.404;11.034;2023-02-04T05:04:41;99411.41;;;4.75;72.13
75627;BME280;67372;49.404;11.034;2023-02-04T05:07:07;99424.63;;;4.75;71.85
75627;BME280;67372;49.404;11.034;2023-02-04T05:09:34;99419.06;;;4.69;72.73
75627;BME280;67372;49.404;11.034;2023-02-04T05:12:00;99442.84;;;4.69;72.65
75627;BME280;67372;49.404;11.034;2023-02-04T05:14:26;99443.00;;;4.67;72.84
75627;BME280;67372;49.404;11.034;2023-02-04T05:16:52;99450.09;;;4.67;72.15
75627;BME280;67372;49.404;11.034;2023-02-04T05:19:19;99439.81;;;4.63;72.18
75627;BME280;67372;49.404;11.034;2023-02-04T05:21:45;99452.44;;;4.70;72.59
75627;BME280;67372;49.404;11.034;2023-02-04T05:24:11;99454.09;;;4.71;72.52
75627;BME280;67372;49.404;11.034;2023-02-04T05:26:38;99448.97;;;4.69;72.07
75627;BME280;67372;49.404;11.034;2023-02-04T05:29:04;99454.47;;;4.58;72.17
75627;BME280;67372;49.404;11.034;2023-02-04T05:31:31;99461.50;;;4.67;71.50
75627;BME280;67372;49.404;11.034;2023-02-04T05:33:57;99466.34;;;4.72;72.51
75627;BME280;67372;49.404;11.034;2023-02-04T05:36:24;99457.16;;;4.76;71.35
75627;BME280;67372;49.404;11.034;2023-02-04T05:38:50;99470.09;;;4.69;71.86
75627;BME280;67372;49.404;11.034;2023-02-04T05:41:16;99471.16;;;4.58;72.03
75627;BME280;67372;49.404;11.034;2023-02-04T05:43:43;99480.06;;;4.57;72.21
75627;BME280;67372;49.404;11.034;2023-02-04T05:46:09;99478.63;;;4.63;71.77
75627;BME280;67372;49.404;11.034;2023-02-04T05:48:36;99485.59;;;4.64;71.96
75627;BME280;67372;49.404;11.034;2023-02-04T05:51:02;99486.56;;;4.63;72.38
75627;BME280;67372;49.404;11.034;2023-02-04T05:53:28;99497.44;;;4.60;72.98
75627;BME280;67372;49.404;11.034;2023-02-04T05:55:55;99499.00;;;4.53;74.34
75627;BME280;67372;49.404;11.034;2023-02-04T05:58:21;99512.34;;;4.51;74.14
75627;BME280;67372;49.404;11.034;2023-02-04T06:00:47;99520.44;;;4.50;74.72
75627;BME280;67372;49.404;11.034;2023-02-04T06:03:14;99529.75;;;4.44;74.54
75627;BME280;67372;49.404;11.034;2023-02-04T06:05:40;99530.88;;;4.42;75.43
75627;BME280;67372;49.404;11.034;2023-02-04T06:08:06;99542.13;;;4.44;75.17
75627;BME280;67372;49.404;11.034;2023-02-04T06:10:33;99545.94;;;4.31;75.29
75627;BME280;67372;49.404;11.034;2023-02-04T06:12:59;99553.84;;;4.31;75.89
75627;BME280;67372;49.404;11.034;2023-02-04T06:15:26;99551.34;;;4.20;75.89
75627;BME280;67372;49.404;11.034;2023-02-04T06:17:52;99555.53;;;4.13;76.58
75627;BME280;67372;49.404;11.034;2023-02-04T06:20:18;99562.50;;;4.14;76.72
75627;BME280;67372;49.404;11.034;2023-02-04T06:22:45;99560.44;;;4.08;76.62
75627;BME280;67372;49.404;11.034;2023-02-04T06:25:11;99560.41;;;3.98;76.67
75627;BME280;67372;49.404;11.034;2023-02-04T06:27:37;99567.66;;;4.06;75.75
75627;BME280;67372;49.404;11.034;2023-02-04T06:30:04;99570.28;;;3.96;76.61
75627;BME280;67372;49.404;11.034;2023-02-04T06:32:30;99570.59;;;4.03;76.35
75627;BME280;67372;49.404;11.034;2023-02-04T06:34:57;99569.84;;;4.01;76.53
75627;BME280;67372;49.404;11.034;2023-02-04T06:37:23;99581.41;;;4.00;75.70
75627;BME280;67372;49.404;11.034;2023-02-04T06:39:49;99579.03;;;3.97;76.31
75627;BME280;67372;49.404;11.034;2023-02-04T06:42:16;99586.56;;;3.92;76.63
75627;BME280;67372;49.404;11.034;2023-02-04T06:44:42;99590.31;;;3.89;76.63
75627;BME280;67372;49.404;11.034;2023-02-04T06:47:08;99601.28;;;3.85;77.13
75627;BME280;67372;49.404;11.034;2023-02-04T06:49:35;99613.22;;;3.89;77.56
75627;BME280;67372;49.404;11.034;2023-02-04T06:52:01;99633.22;;;3.91;77.64
75627;BME280;67372;49.404;11.034;2023-02-04T06:54:28;99632.38;;;3.72;75.21
75627;BME280;67372;49.404;11.034;2023-02-04T06:56:54;99644.69;;;3.52;75.50
75627;BME280;67372;49.404;11.034;2023-02-04T06:59:20;99653.13;;;3.36;76.89
75627;BME280;67372;49.404;11.034;2023-02-04T07:01:46;99648.91;;;3.24;77.01
75627;BME280;67372;49.404;11.034;2023-02-04T07:04:13;99668.31;;;3.13;77.94
75627;BME280;67372;49.404;11.034;2023-02-04T07:06:39;99667.78;;;3.19;77.84
75627;BME280;67372;49.404;11.034;2023-02-04T07:09:05;99671.81;;;3.23;77.60
75627;BME280;67372;49.404;11.034;2023-02-04T07:11:32;99672.78;;;3.22;77.62
75627;BME280;67372;49.404;11.034;2023-02-04T07:13:58;99675.47;;;3.32;78.19
75627;BME280;67372;49.404;11.034;2023-02-04T07:16:24;99674.94;;;3.38;77.69
75627;BME280;67372;49.404;11.034;2023-02-04T07:18:51;99668.63;;;3.29;77.34
75627;BME280;67372;49.404;11.034;2023-02-04T07:21:17;99682.22;;;3.25;78.47
75627;BME280;67372;49.404;11.034;2023-02-04T07:23:43;99679.66;;;3.34;77.88
75627;BME280;67372;49.404;11.034;2023-02-04T07:26:09;99688.13;;;3.38;77.15
75627;BME280;67372;49.404;11.034;2023-02-04T07:28:36;99692.13;;;3.32;78.03
75627;BME280;67372;49.404;11.034;2023-02-04T07:31:02;99691.53;;;3.29;77.45
75627;BME280;67372;49.404;11.034;2023-02-04T07:33:29;99698.25;;;3.33;77.26
75627;BME280;67372;49.404;11.034;2023-02-04T07:35:55;99704.47;;;3.32;77.30
75627;BME280;67372;49.404;11.034;2023-02-04T07:38:21;99708.06;;;3.31;77.50
75627;BME280;67372;49.404;11.034;2023-02-04T07:40:47;99707.22;;;3.30;77.35
75627;BME280;67372;49.404;11.034;2023-02-04T07:43:14;99716.44;;;3.36;77.38
75627;BME280;67372;49.404;11.034;2023-02-04T07:45:40;99730.59;;;3.35;77.15
75627;BME280;67372;49.404;11.034;2023-02-04T07:48:07;99741.00;;;3.36;76.86
75627;BME280;67372;49.404;11.034;2023-02-04T07:50:33;99742.25;;;3.32;77.01
75627;BME280;67372;49.404;11.034;2023-02-04T07:53:00;99746.06;;;3.28;77.91
75627;BME280;67372;49.404;11.034;2023-02-04T07:55:26;99760.94;;;3.29;77.47
75627;BME280;67372;49.404;11.034;2023-02-04T07:57:53;99752.44;;;3.26;78.16
75627;BME280;67372;49.404;11.034;2023-02-04T08:00:19;99741.50;;;3.30;77.71
75627;BME280;67372;49.404;11.034;2023-02-04T08:02:46;99747.81;;;3.39;77.62
75627;BME280;67372;49.404;11.034;2023-02-04T08:05:12;99743.53;;;3.48;77.35
75627;BME280;67372;49.404;11.034;2023-02-04T08:07:39;99749.00;;;3.56;76.03
75627;BME280;67372;49.404;11.034;2023-02-04T08:10:06;99746.66;;;3.62;76.23
75627;BME280;67372;49.404;11.034;2023-02-04T08:12:33;99758.44;;;3.58;76.31
75627;BME280;67372;49.404;11.034;2023-02-04T08:15:00;99758.59;;;3.57;76.00
75627;BME280;67372;49.404;11.034;2023-02-04T08:17:26;99768.72;;;3.61;75.51
75627;BME280;67372;49.404;11.034;2023-02-04T08:19:53;99779.44;;;3.69;75.56
75627;BME280;67372;49.404;11.034;2023-02-04T08:22:20;99783.34;;;3.75;74.47
75627;BME280;67372;49.404;11.034;2023-02-04T08:24:46;99789.66;;;3.84;74.40
75627;BME280;67372;49.404;11.034;2023-02-04T08:27:12;99795.13;;;3.71;74.10
75627;BME280;67372;49.404;11.034;2023-02-04T08:29:39;99800.91;;;3.86;73.79
75627;BME280;67372;49.404;11.034;2023-02-04T08:32:05;99804.53;;;3.94;73.50
75627;BME280;67372;49.404;11.034;2023-02-04T08:34:32;99801.81;;;4.06;73.21
75627;BME280;67372;49.404;11.034;2023-02-04T08:36:58;99803.75;;;4.13;73.36
75627;BME280;67372;49.404;11.034;2023-02-04T08:39:24;99809.31;;;4.10;70.93
75627;BME280;67372;49.404;11.034;2023-02-04T08:41:51;99808.66;;;4.27;72.02
75627;BME280;67372;49.404;11.034;2023-02-04T08:44:17;99816.31;;;4.30;70.79
75627;BME280;67372;49.404;11.034;2023-02-04T08:46:43;99825.06;;;4.31;71.05
75627;BME280;67372;49.404;11.034;2023-02-04T08:49:10;99819.91;;;4.29;69.40
75627;BME280;67372;49.404;11.034;2023-02-04T08:51:36;99827.16;;;4.37;69.94
75627;BME280;67372;49.404;11.034;2023-02-04T08:54:02;99829.06;;;4.25;70.36
75627;BME280;67372;49.404;11.034;2023-02-04T08:56:29;99828.69;;;4.30;70.73
75627;BME280;67372;49.404;11.034;2023-02-04T08:58:55;99833.69;;;4.33;70.23
75627;BME280;67372;49.404;11.034;2023-02-04T09:01:22;99835.78;;;4.39;70.48
75627;BME280;67372;49.404;11.034;2023-02-04T09:03:48;99837.19;;;4.53;69.99
75627;BME280;67372;49.404;11.034;2023-02-04T09:06:14;99842.63;;;4.61;69.74
75627;BME280;67372;49.404;11.034;2023-02-04T09:08:41;99835.84;;;4.78;70.65
75627;BME280;67372;49.404;11.034;2023-02-04T09:11:07;99843.31;;;4.73;66.65
75627;BME280;67372;49.404;11.034;2023-02-04T09:13:33;99857.38;;;4.63;65.50
75627;BME280;67372;49.404;11.034;2023-02-04T09:16:00;99854.88;;;4.72;66.30
75627;BME280;67372;49.404;11.034;2023-02-04T09:18:26;99865.72;;;4.88;67.83
75627;BME280;67372;49.404;11.034;2023-02-04T09:20:52;99870.75;;;4.91;65.18
75627;BME280;67372;49.404;11.034;2023-02-04T09:23:19;99866.44;;;4.90;63.75
75627;BME280;67372;49.404;11.034;2023-02-04T09:25:45;99867.69;;;4.86;63.54
75627;BME280;67372;49.404;11.034;2023-02-04T09:28:12;99871.69;;;4.71;62.25
75627;BME280;67372;49.404;11.034;2023-02-04T09:30:40;99882.13;;;4.62;64.24
75627;BME280;67372;49.404;11.034;2023-02-04T09:33:07;99882.97;;;4.53;63.98
75627;BME280;67372;49.404;11.034;2023-02-04T09:35:34;99875.44;;;4.58;62.53
75627;BME280;67372;49.404;11.034;2023-02-04T09:38:00;99875.44;;;4.58;61.69
75627;BME280;67372;49.404;11.034;2023-02-04T09:40:29;99883.38;;;4.68;63.80
75627;BME280;67372;49.404;11.034;2023-02-04T09:42:57;99891.72;;;4.63;63.22
75627;BME280;67372;49.404;11.034;2023-02-04T09:45:26;99900.06;;;4.69;61.37
75627;BME280;67372;49.404;11.034;2023-02-04T09:47:55;99905.91;;;4.72;61.06
75627;BME280;67372;49.404;11.034;2023-02-04T09:50:23;99915.69;;;4.81;60.97
75627;BME280;67372;49.404;11.034;2023-02-04T09:52:54;99918.88;;;4.85;61.94
75627;BME280;67372;49.404;11.034;2023-02-04T09:55:27;99916.41;;;5.03;63.91
75627;BME280;67372;49.404;11.034;2023-02-04T09:57:54;99921.28;;;5.27;63.92
75627;BME280;67372;49.404;11.034;2023-02-04T10:00:23;99931.72;;;5.47;61.43
75627;BME280;67372;49.404;11.034;2023-02-04T10:02:50;99925.41;;;5.68;61.96
75627;BME280;67372;49.404;11.034;2023-02-04T10:05:28;99930.16;;;5.74;60.70
75627;BME280;67372;49.404;11.034;2023-02-04T10:07:55;99928.69;;;5.89;62.45
75627;BME280;67372;49.404;11.034;2023-02-04T10:10:23;99927.59;;;6.01;61.68
75627;BME280;67372;49.404;11.034;2023-02-04T10:12:54;99931.66;;;5.67;57.71
75627;BME280;67372;49.404;11.034;2023-02-04T10:15:21;99929.16;;;5.65;60.18
75627;BME280;67372;49.404;11.034;2023-02-04T10:17:51;99932.41;;;5.49;59.47
75627;BME280;67372;49.404;11.034;2023-02-04T10:20:20;99932.41;;;5.40;59.56
75627;BME280;67372;49.404;11.034;2023-02-04T10:22:48;99934.50;;;5.27;60.53
75627;BME280;67372;49.404;11.034;2023-02-04T10:25:18;99934.78;;;5.04;59.86
75627;BME280;67372;49.404;11.034;2023-02-04T10:27:55;99945.63;;;5.01;59.69
75627;BME280;67372;49.404;11.034;2023-02-04T10:30:24;99945.88;;;4.88;58.83
75627;BME280;67372;49.404;11.034;2023-02-04T10:32:52;99936.97;;;4.89;59.08
75627;BME280;67372;49.404;11.034;2023-02-04T10:35:20;99934.75;;;4.85;59.75
75627;BME280;67372;49.404;11.034;2023-02-04T10:38:01;99933.50;;;4.89;60.70
75627;BME280;67372;49.404;11.034;2023-02-04T10:40:30;99934.38;;;4.99;61.46
75627;BME280;67372;49.404;11.034;2023-02-04T10:42:57;99935.91;;;5.11;61.51
75627;BME280;67372;49.404;11.034;2023-02-04T10:45:26;99933.25;;;5.11;60.82
75627;BME280;67372;49.404;11.034;2023-02-04T10:47:54;99928.50;;;5.15;60.18
75627;BME280;67372;49.404;11.034;2023-02-04T10:50:26;99935.47;;;5.16;60.23
75627;BME280;67372;49.404;11.034;2023-02-04T10:52:55;99929.06;;;5.18;58.18
75627;BME280;67372;49.404;11.034;2023-02-04T10:55:22;99927.41;;;5.37;60.59
75627;BME280;67372;49.404;11.034;2023-02-04T10:57:51;99925.44;;;5.58;59.88
75627;BME280;67372;49.404;11.034;2023-02-04T11:00:19;99923.03;;;5.65;56.64
75627;BME280;67372;49.404;11.034;2023-02-04T11:02:52;99923.63;;;5.59;55.76
75627;BME280;67372;49.404;11.034;2023-02-04T11:05:22;99933.41;;;5.48;53.98
75627;BME280;67372;49.404;11.034;2023-02-04T11:07:49;99929.84;;;5.67;56.25
75627;BME280;67372;49.404;11.034;2023-02-04T11:10:19;99929.16;;;5.65;53.21
75627;BME280;67372;49.404;11.034;2023-02-04T11:20:51;99937.59;;;6.07;55.63
75627;BME280;67372;49.404;11.034;2023-02-04T11:26:13;99939.41;;;6.17;51.30
75627;BME280;67372;49.404;11.034;2023-02-04T11:28:49;99933.38;;;6.14;52.17
75627;BME280;67372;49.404;11.034;2023-02-04T11:33:45;99938.44;;;6.18;51.73
75627;BME280;67372;49.404;11.034;2023-02-04T11:36:13;99935.44;;;5.93;52.25
75627;BME280;67372;49.404;11.034;2023-02-04T11:38:45;99942.56;;;5.64;53.99
75627;BME280;67372;49.404;11.034;2023-02-04T11:41:20;99941.47;;;5.47;54.28
75627;BME280;67372;49.404;11.034;2023-02-04T11:43:52;99949.97;;;5.50;54.93
75627;BME280;67372;49.404;11.034;2023-02-04T11:46:20;99947.31;;;5.50;56.16
75627;BME280;67372;49.404;11.034;2023-02-04T11:48:51;99954.56;;;5.48;54.80
75627;BME280;67372;49.404;11.034;2023-02-04T11:51:21;99949.66;;;5.44;54.44
75627;BME280;67372;49.404;11.034;2023-02-04T11:53:50;99949.25;;;5.19;54.22
75627;BME280;67372;49.404;11.034;2023-02-04T11:56:21;99942.88;;;5.32;56.22
75627;BME280;67372;49.404;11.034;2023-02-04T11:58:49;99950.38;;;5.46;56.39
75627;BME280;67372;49.404;11.034;2023-02-04T12:01:21;99953.00;;;5.55;53.80
75627;BME280;67372;49.404;11.034;2023-02-04T12:03:49;99950.78;;;5.70;55.53
75627;BME280;67372;49.404;11.034;2023-02-04T12:06:24;99948.81;;;5.92;53.29
75627;BME280;67372;49.404;11.034;2023-02-04T12:08:51;99948.69;;;5.74;53.89
75627;BME280;67372;49.404;11.034;2023-02-04T12:11:28;99949.78;;;5.62;54.55
75627;BME280;67372;49.404;11.034;2023-02-04T12:13:57;99950.63;;;5.72;55.19
75627;BME280;67372;49.404;11.034;2023-02-04T12:16:24;99951.16;;;5.85;55.35
75627;BME280;67372;49.404;11.034;2023-02-04T12:18:50;99952.81;;;6.05;54.66
75627;BME280;67372;49.404;11.034;2023-02-04T12:21:17;99954.78;;;6.03;51.05
75627;BME280;67372;49.404;11.034;2023-02-04T12:23:44;99959.47;;;6.19;53.21
75627;BME280;67372;49.404;11.034;2023-02-04T12:26:10;99964.81;;;6.37;53.02
75627;BME280;67372;49.404;11.034;2023-02-04T12:28:37;99959.25;;;6.40;53.81
75627;BME280;67372;49.404;11.034;2023-02-04T12:31:03;99970.41;;;6.43;53.61
75627;BME280;67372;49.404;11.034;2023-02-04T12:33:29;99961.19;;;6.38;51.78
75627;BME280;67372;49.404;11.034;2023-02-04T12:35:56;99967.06;;;6.41;53.65
75627;BME280;67372;49.404;11.034;2023-02-04T12:38:22;99964.69;;;6.38;53.39
75627;BME280;67372;49.404;11.034;2023-02-04T12:40:48;99970.56;;;6.42;53.51
75627;BME280;67372;49.404;11.034;2023-02-04T12:43:15;99964.00;;;6.36;53.89
75627;BME280;67372;49.404;11.034;2023-02-04T12:45:41;99968.44;;;6.45;53.32
75627;BME280;67372;49.404;11.034;2023-02-04T12:48:07;99960.88;;;6.51;54.31
75627;BME280;67372;49.404;11.034;2023-02-04T12:50:34;99968.13;;;6.49;51.91
75627;BME280;67372;49.404;11.034;2023-02-04T12:53:00;99974.19;;;6.41;52.98
75627;BME280;67372;49.404;11.034;2023-02-04T12:55:27;99968.97;;;6.12;52.18
75627;BME280;67372;49.404;11.034;2023-02-04T12:57:53;99987.00;;;5.79;53.47
75627;BME280;67372;49.404;11.034;2023-02-04T13:00:20;99974.88;;;5.77;53.19
75627;BME280;67372;49.404;11.034;2023-02-04T13:02:47;99980.03;;;5.69;53.60
75627;BME280;67372;49.404;11.034;2023-02-04T13:05:15;99986.03;;;5.71;54.62
75627;BME280;67372;49.404;11.034;2023-02-04T13:07:41;99977.81;;;5.54;53.21
75627;BME280;67372;49.404;11.034;2023-02-04T13:10:09;99989.09;;;5.47;54.59
75627;BME280;67372;49.404;11.034;2023-02-04T13:12:35;99983.66;;;5.29;53.61
75627;BME280;67372;49.404;11.034;2023-02-04T13:15:03;99985.03;;;5.43;54.57